createdAt,value
2018-12-03T00:00:31.333Z,11.40
2018-12-03T00:03:04.078Z,11.30
2018-12-03T00:05:33.259Z,11.40
2018-12-03T00:08:02.740Z,11.30
2018-12-03T00:10:32.155Z,11.30
2018-12-03T00:13:02.190Z,11.40
2018-12-03T00:20:29.697Z,11.20
2018-12-03T00:22:58.920Z,11.20
2018-12-03T00:25:28.303Z,11.30
2018-12-03T00:27:58.035Z,11.30
2018-12-03T00:30:27.439Z,11.20
2018-12-03T00:32:56.822Z,11.30
2018-12-03T00:40:24.297Z,11.40
2018-12-03T00:42:54.014Z,11.40
2018-12-03T00:47:53.115Z,11.40
2018-12-03T00:50:22.589Z,11.50
2018-12-03T00:52:52.068Z,12.70
2018-12-03T00:55:21.307Z,11.50
2018-12-03T00:57:50.955Z,11.50
2018-12-03T01:00:20.468Z,11.50
2018-12-03T01:02:49.723Z,11.50
2018-12-03T01:07:47.739Z,11.50
2018-12-03T01:10:17.371Z,11.60
2018-12-03T01:12:46.698Z,11.60
2018-12-03T01:15:16.136Z,11.60
2018-12-03T01:20:14.402Z,11.70
2018-12-03T01:22:44.133Z,11.60
2018-12-03T01:27:43.141Z,11.70
2018-12-03T01:30:12.560Z,11.70
2018-12-03T01:35:11.461Z,11.60
2018-12-03T01:37:41.580Z,11.70
2018-12-03T01:40:12.094Z,11.60
2018-12-03T01:42:41.664Z,11.60
2018-12-03T01:45:12.629Z,11.60
2018-12-03T01:47:42.731Z,11.60
2018-12-03T01:50:13.157Z,11.50
2018-12-03T01:52:42.689Z,11.70
2018-12-03T01:55:13.036Z,11.80
2018-12-03T02:00:15.678Z,11.70
2018-12-03T02:02:45.019Z,11.70
2018-12-03T02:07:43.517Z,11.60
2018-12-03T02:10:14.554Z,11.70
2018-12-03T02:12:44.125Z,11.70
2018-12-03T02:15:16.045Z,11.60
2018-12-03T02:20:16.947Z,11.70
2018-12-03T02:27:44.142Z,11.80
2018-12-03T02:30:15.891Z,11.40
2018-12-03T02:32:45.282Z,11.80
2018-12-03T02:35:15.363Z,11.90
2018-12-03T02:37:44.810Z,12.00
2018-12-03T02:40:16.934Z,12.00
2018-12-03T02:45:15.670Z,12.10
2018-12-03T02:47:45.201Z,12.10
2018-12-03T02:50:15.140Z,12.10
2018-12-03T02:55:14.322Z,12.20
2018-12-03T02:57:43.585Z,12.20
2018-12-03T03:00:15.360Z,12.30
2018-12-03T03:02:44.892Z,12.30
2018-12-03T03:05:15.780Z,12.30
2018-12-03T03:07:45.594Z,12.80
2018-12-03T03:12:44.328Z,12.20
2018-12-03T03:15:15.051Z,12.20
2018-12-03T03:17:44.353Z,12.20
2018-12-03T03:20:14.118Z,12.20
2018-12-03T03:25:12.452Z,12.20
2018-12-03T03:27:42.150Z,12.20
2018-12-03T03:32:42.604Z,12.20
2018-12-03T03:37:41.304Z,12.30
2018-12-03T03:42:41.095Z,12.20
2018-12-03T03:45:15.963Z,12.20
2018-12-03T03:47:45.322Z,12.30
2018-12-03T03:50:14.991Z,13.00
2018-12-03T03:52:44.559Z,12.30
2018-12-03T03:55:13.730Z,12.70
2018-12-03T03:57:43.200Z,12.40
2018-12-03T04:00:14.571Z,12.50
2018-12-03T04:02:43.912Z,13.80
2018-12-03T04:05:18.066Z,12.50
2018-12-03T04:07:47.534Z,12.60
2018-12-03T04:10:17.175Z,12.60
2018-12-03T04:12:47.694Z,12.00
2018-12-03T04:15:17.637Z,12.70
2018-12-03T04:17:47.570Z,12.70
2018-12-03T04:22:56.594Z,12.70
2018-12-03T04:25:25.908Z,12.70
2018-12-03T04:30:23.925Z,12.80
2018-12-03T04:32:53.951Z,12.70
2018-12-03T04:35:24.308Z,12.70
2018-12-03T04:37:53.687Z,12.70
2018-12-03T04:40:22.910Z,12.60
2018-12-03T04:42:52.284Z,12.60
2018-12-03T04:47:51.439Z,12.60
2018-12-03T04:50:21.826Z,12.50
2018-12-03T04:52:51.083Z,12.60
2018-12-03T04:55:21.578Z,12.60
2018-12-03T05:00:20.531Z,12.10
2018-12-03T05:07:47.968Z,12.70
2018-12-03T05:12:48.678Z,12.60
2018-12-03T05:15:18.147Z,12.70
2018-12-03T05:17:47.571Z,12.70
2018-12-03T05:20:19.193Z,12.60
2018-12-03T05:25:19.443Z,12.60
2018-12-03T05:27:46.487Z,12.80
2018-12-03T05:30:17.352Z,12.80
2018-12-03T05:32:47.534Z,12.80
2018-12-03T05:35:19.247Z,12.80
2018-12-03T05:42:47.522Z,12.80
2018-12-03T05:47:46.238Z,15.00
2018-12-03T05:52:46.582Z,13.00
2018-12-03T05:55:16.200Z,12.90
2018-12-03T05:57:46.515Z,13.00
2018-12-03T06:00:21.401Z,13.10
2018-12-03T06:02:50.714Z,13.00
2018-12-03T06:05:20.396Z,13.00
2018-12-03T06:07:50.188Z,13.10
2018-12-03T06:10:21.131Z,13.10
2018-12-03T06:15:20.582Z,13.00
2018-12-03T06:20:20.336Z,13.10
2018-12-03T06:25:20.888Z,13.10
2018-12-03T06:27:50.291Z,13.70
2018-12-03T06:37:49.846Z,13.30
2018-12-03T06:42:56.223Z,13.30
2018-12-03T06:45:27.058Z,12.90
2018-12-03T06:48:06.127Z,11.50
2018-12-03T06:53:05.503Z,13.30
2018-12-03T07:00:33.200Z,13.30
2018-12-03T07:15:41.851Z,13.40
2018-12-03T07:18:12.287Z,13.30
2018-12-03T07:25:42.114Z,13.30
2018-12-03T07:28:12.040Z,13.30
2018-12-03T07:30:41.437Z,13.30
2018-12-03T07:33:11.775Z,13.30
2018-12-03T07:35:41.485Z,13.40
2018-12-03T07:38:10.736Z,13.40
2018-12-03T07:48:07.498Z,12.80
2018-12-03T07:50:38.911Z,13.60
2018-12-03T07:53:08.812Z,13.50
2018-12-03T08:00:51.420Z,13.60
2018-12-03T08:05:51.182Z,13.70
2018-12-03T08:11:00.508Z,13.70
2018-12-03T08:13:30.329Z,13.90
2018-12-03T08:16:05.230Z,13.90
2018-12-03T08:31:20.263Z,14.20
2018-12-03T08:33:49.510Z,14.30
2018-12-03T08:38:48.375Z,15.40
2018-12-03T08:41:17.583Z,14.50
2018-12-03T08:43:47.574Z,14.50
2018-12-03T08:46:17.194Z,14.50
2018-12-03T08:53:58.295Z,14.70
2018-12-03T08:56:27.512Z,14.80
2018-12-03T08:58:56.809Z,14.80
2018-12-03T09:01:26.287Z,14.80
2018-12-03T09:04:00.201Z,14.90
2018-12-03T09:13:56.203Z,15.00
2018-12-03T09:18:54.610Z,12.70
2018-12-03T09:21:24.149Z,15.10
2018-12-03T09:23:57.903Z,15.20
2018-12-03T09:28:56.733Z,15.20
2018-12-03T09:31:26.928Z,16.40
2018-12-03T09:33:57.606Z,16.10
2018-12-03T09:36:27.698Z,15.00
2018-12-03T09:39:01.370Z,15.10
2018-12-03T09:41:30.690Z,15.10
2018-12-03T09:44:00.057Z,14.50
2018-12-03T10:01:42.205Z,15.10
2018-12-03T10:04:16.605Z,15.10
2018-12-03T10:06:46.123Z,15.10
2018-12-03T10:09:15.851Z,15.10
2018-12-03T10:14:19.551Z,14.70
2018-12-03T10:21:47.766Z,15.40
2018-12-03T10:24:17.137Z,15.90
2018-12-03T10:26:46.659Z,15.50
2018-12-03T10:29:17.201Z,15.60
2018-12-03T10:31:46.447Z,15.60
2018-12-03T10:36:54.283Z,15.70
2018-12-03T10:39:26.684Z,15.70
2018-12-03T10:42:00.921Z,15.80
2018-12-03T10:44:30.103Z,15.70
2018-12-03T10:46:59.388Z,15.80
2018-12-03T10:49:36.595Z,15.80
2018-12-03T10:52:06.305Z,15.90
2018-12-03T10:54:37.018Z,16.20
2018-12-03T10:57:07.747Z,16.20
2018-12-03T11:02:12.595Z,16.50
2018-12-03T11:04:47.941Z,16.60
2018-12-03T11:07:17.319Z,16.60
2018-12-03T11:09:46.968Z,16.70
2018-12-03T11:12:25.368Z,16.70
2018-12-03T11:14:56.654Z,16.80
2018-12-03T11:17:28.146Z,16.90
2018-12-03T11:19:58.224Z,16.80
2018-12-03T11:22:37.113Z,17.00
2018-12-03T11:25:11.734Z,17.00
2018-12-03T11:27:42.883Z,17.00
2018-12-03T11:30:14.015Z,17.00
2018-12-03T11:32:43.964Z,16.90
2018-12-03T11:35:14.566Z,16.90
2018-12-03T11:37:47.692Z,16.80
2018-12-03T11:41:24.559Z,16.80
2018-12-03T11:43:54.079Z,16.70
2018-12-03T11:46:25.979Z,16.60
2018-12-03T11:48:56.592Z,16.80
2018-12-03T11:51:26.085Z,16.20
2018-12-03T11:53:56.532Z,16.70
2018-12-03T11:56:27.244Z,16.70
2018-12-03T11:58:57.386Z,16.70
2018-12-03T12:01:26.645Z,16.60
2018-12-03T12:03:56.068Z,16.60
2018-12-03T12:06:26.168Z,16.60
2018-12-03T12:08:55.366Z,16.70
2018-12-03T12:11:24.950Z,18.20
2018-12-03T12:13:54.162Z,16.70
2018-12-03T12:16:23.617Z,16.70
2018-12-03T12:18:52.800Z,16.70
2018-12-03T12:21:23.257Z,16.70
2018-12-03T12:23:52.580Z,16.70
2018-12-03T12:26:22.048Z,16.60
2018-12-03T12:28:51.650Z,16.60
2018-12-03T12:31:21.089Z,16.60
2018-12-03T12:33:50.474Z,16.60
2018-12-03T12:36:20.248Z,16.60
2018-12-03T12:38:49.713Z,16.60
2018-12-03T12:41:18.977Z,16.60
2018-12-03T12:43:48.183Z,16.50
2018-12-03T12:46:20.430Z,16.50
2018-12-03T12:48:49.856Z,16.50
2018-12-03T12:51:19.088Z,16.50
2018-12-03T12:53:48.429Z,16.50
2018-12-03T12:56:18.153Z,16.40
2018-12-03T12:58:47.426Z,16.40
2018-12-03T13:01:16.964Z,16.40
2018-12-03T13:03:46.185Z,16.40
2018-12-03T13:06:15.453Z,16.30
2018-12-03T13:08:44.684Z,16.30
2018-12-03T13:11:13.918Z,16.40
2018-12-03T13:13:43.117Z,16.40
2018-12-03T13:16:13.218Z,16.40
2018-12-03T13:18:42.776Z,16.40
2018-12-03T13:21:11.999Z,16.40
2018-12-03T13:23:41.159Z,16.40
2018-12-03T13:26:10.510Z,16.00
2018-12-03T13:28:39.955Z,16.40
2018-12-03T13:31:09.300Z,16.30
2018-12-03T13:33:38.639Z,16.30
2018-12-03T13:36:09.953Z,16.20
2018-12-03T13:38:39.217Z,16.20
2018-12-03T13:41:08.538Z,16.20
2018-12-03T13:46:07.362Z,16.20
2018-12-03T13:48:35.850Z,16.10
2018-12-03T13:51:05.166Z,16.00
2018-12-03T13:53:34.365Z,16.00
2018-12-03T13:56:03.518Z,16.00
2018-12-03T13:58:33.308Z,16.00
2018-12-03T14:01:02.739Z,16.00
2018-12-03T14:03:34.149Z,16.00
2018-12-03T14:07:09.897Z,16.00
2018-12-03T14:09:50.626Z,16.00
2018-12-03T14:13:00.418Z,16.00
2018-12-03T14:15:49.726Z,16.00
2018-12-03T14:18:37.427Z,16.00
2018-12-03T14:21:14.259Z,15.90
2018-12-03T14:23:44.387Z,15.90
2018-12-03T14:26:13.630Z,15.90
2018-12-03T14:28:43.477Z,15.90
2018-12-03T14:31:12.704Z,15.80
2018-12-03T14:33:43.134Z,15.80
2018-12-03T14:36:12.652Z,15.30
2018-12-03T14:38:41.812Z,15.80
2018-12-03T14:41:11.081Z,15.70
2018-12-03T14:43:40.731Z,15.70
2018-12-03T14:46:10.791Z,15.60
2018-12-03T14:48:40.031Z,15.60
2018-12-03T14:51:09.868Z,15.60
2018-12-03T14:53:39.163Z,15.00
2018-12-03T14:56:08.397Z,15.50
2018-12-03T14:58:37.603Z,15.50
2018-12-03T15:03:35.543Z,15.40
2018-12-03T15:06:04.690Z,15.40
2018-12-03T15:08:33.891Z,15.10
2018-12-03T15:11:03.019Z,15.30
2018-12-03T15:30:25.388Z,15.20
2018-12-03T15:52:34.117Z,15.20
2018-12-03T16:00:20.626Z,15.20
2018-12-03T16:26:00.023Z,15.00
2018-12-03T16:50:15.684Z,14.90
2018-12-03T16:55:20.708Z,15.00
2018-12-03T16:57:53.640Z,15.00
2018-12-03T17:08:03.919Z,15.00
2018-12-03T17:13:32.033Z,15.50
2018-12-03T17:18:48.323Z,15.10
2018-12-03T17:26:26.380Z,15.60
2018-12-03T17:34:06.624Z,15.40
2018-12-03T17:39:08.308Z,15.00
2018-12-03T17:44:45.641Z,14.90
2018-12-03T17:49:46.367Z,15.00
2018-12-03T17:52:27.700Z,15.10
2018-12-03T17:54:57.885Z,14.60
2018-12-03T18:03:24.515Z,14.90
2018-12-03T18:08:27.599Z,14.70
2018-12-03T18:13:31.231Z,14.70
2018-12-03T18:23:46.703Z,14.20
2018-12-03T18:26:16.231Z,14.20
2018-12-03T18:34:24.813Z,14.70
2018-12-03T18:37:01.856Z,14.30
2018-12-03T19:22:55.511Z,12.10
2018-12-03T19:41:39.032Z,12.00
2018-12-03T19:46:46.722Z,12.10
2018-12-03T19:49:18.063Z,12.10
2018-12-03T19:52:00.748Z,12.10
2018-12-03T19:54:34.148Z,12.30
2018-12-03T19:59:46.974Z,12.20
2018-12-03T20:07:54.277Z,12.20
2018-12-03T20:13:00.896Z,12.10
2018-12-03T20:18:06.126Z,12.20
2018-12-03T20:20:47.811Z,11.90
2018-12-03T20:23:29.191Z,12.10
2018-12-03T20:28:44.708Z,12.50
2018-12-03T20:34:33.281Z,12.20
2018-12-03T20:39:49.187Z,12.40
2018-12-03T20:42:18.693Z,12.30
2018-12-03T20:44:55.755Z,12.30
2018-12-03T20:52:34.929Z,12.50
2018-12-03T20:58:06.636Z,12.40
2018-12-03T21:05:44.015Z,12.50
2018-12-03T21:08:13.965Z,12.50
2018-12-03T21:13:28.319Z,12.40
2018-12-03T21:16:01.129Z,12.60
2018-12-03T21:23:37.818Z,12.60
2018-12-03T21:26:11.159Z,12.60
2018-12-03T21:28:46.958Z,12.60
2018-12-03T21:31:20.052Z,12.40
2018-12-03T21:36:43.086Z,13.00
2018-12-03T21:39:18.171Z,12.50
2018-12-03T21:41:53.861Z,12.50
2018-12-03T21:44:23.710Z,12.50
2018-12-03T21:46:53.765Z,12.50
2018-12-03T21:54:27.788Z,12.10
2018-12-03T21:56:57.303Z,12.60
2018-12-03T22:04:36.429Z,12.70
2018-12-03T22:12:14.876Z,12.70
2018-12-03T22:19:51.141Z,12.80
2018-12-03T22:30:02.274Z,12.70
2018-12-03T22:32:37.107Z,12.70
2018-12-03T22:35:21.293Z,13.30
2018-12-03T22:37:50.674Z,12.70
2018-12-03T22:43:06.815Z,12.60
2018-12-03T22:45:41.464Z,12.60
2018-12-03T22:48:11.243Z,12.80
2018-12-03T22:50:46.152Z,12.70
2018-12-03T22:53:19.794Z,12.60
2018-12-03T23:00:53.085Z,12.70
2018-12-03T23:05:51.624Z,12.70
2018-12-03T23:08:21.076Z,12.70
2018-12-03T23:13:24.947Z,12.60
2018-12-03T23:18:30.969Z,12.50
2018-12-03T23:31:20.377Z,12.30
2018-12-03T23:38:48.630Z,12.30
2018-12-03T23:41:17.772Z,12.30
2018-12-03T23:46:52.935Z,12.30
2018-12-03T23:54:46.990Z,12.10
2018-12-03T23:59:53.210Z,12.10
